createdAt,value
2023-09-03T00:01:32.788Z,4.18
2023-09-03T00:04:01.899Z,3.72
2023-09-03T00:06:29.707Z,4.75
2023-09-03T00:08:57.388Z,4.28
2023-09-03T00:11:25.172Z,3.60
2023-09-03T00:13:52.914Z,4.72
2023-09-03T00:16:20.638Z,4.07
2023-09-03T00:18:48.937Z,3.90
2023-09-03T00:21:18.080Z,3.90
2023-09-03T00:23:52.088Z,3.67
2023-09-03T00:26:22.411Z,3.90
2023-09-03T00:28:50.226Z,3.92
2023-09-03T00:31:19.018Z,3.80
2023-09-03T00:33:46.796Z,4.40
2023-09-03T00:36:15.460Z,3.45
2023-09-03T00:38:49.492Z,4.03
2023-09-03T00:41:17.267Z,3.78
2023-09-03T00:43:45.032Z,3.40
2023-09-03T00:46:12.926Z,3.97
2023-09-03T00:48:41.114Z,4.07
2023-09-03T00:51:10.987Z,3.80
2023-09-03T00:53:42.965Z,3.88
2023-09-03T00:56:12.931Z,3.88
2023-09-03T00:58:41.202Z,3.53
2023-09-03T01:01:09.238Z,3.65
2023-09-03T01:03:37.753Z,3.90
2023-09-03T01:06:06.444Z,4.47
2023-09-03T01:08:34.435Z,5.50
2023-09-03T01:11:08.540Z,3.95
2023-09-03T01:13:42.492Z,3.78
2023-09-03T01:16:14.423Z,4.00
2023-09-03T01:18:43.383Z,3.92
2023-09-03T01:21:22.659Z,3.85
2023-09-03T01:23:59.396Z,3.80
2023-09-03T01:26:36.844Z,3.70
2023-09-03T01:29:06.386Z,4.22
2023-09-03T01:31:34.239Z,3.90
2023-09-03T01:34:04.471Z,4.05
2023-09-03T01:36:32.660Z,3.85
2023-09-03T01:39:06.356Z,3.38
2023-09-03T01:41:34.986Z,4.95
2023-09-03T01:44:03.444Z,3.15
2023-09-03T01:46:39.041Z,3.67
2023-09-03T01:49:11.352Z,3.60
2023-09-03T01:51:39.961Z,3.88
2023-09-03T01:54:10.752Z,4.05
2023-09-03T01:56:40.908Z,3.00
2023-09-03T01:59:12.526Z,3.55
2023-09-03T02:01:41.927Z,3.83
2023-09-03T02:04:09.753Z,3.72
2023-09-03T02:06:37.497Z,4.05
2023-09-03T02:09:05.931Z,3.88
2023-09-03T02:11:33.668Z,3.08
2023-09-03T02:14:01.429Z,4.30
2023-09-03T02:16:29.214Z,3.92
2023-09-03T02:18:59.357Z,3.92
2023-09-03T02:21:27.186Z,4.32
2023-09-03T02:23:54.917Z,3.55
2023-09-03T02:26:22.680Z,3.88
2023-09-03T02:28:50.762Z,4.25
2023-09-03T02:31:18.472Z,4.10
2023-09-03T02:33:46.251Z,4.35
2023-09-03T02:36:15.443Z,3.88
2023-09-03T02:38:43.174Z,4.00
2023-09-03T02:41:10.959Z,3.47
2023-09-03T02:43:44.737Z,3.75
2023-09-03T02:46:12.486Z,4.03
2023-09-03T02:48:40.259Z,3.80
2023-09-03T02:51:07.978Z,3.90
2023-09-03T02:53:37.075Z,3.90
2023-09-03T02:56:05.002Z,3.95
2023-09-03T02:58:32.745Z,3.97
2023-09-03T03:01:05.277Z,3.85
2023-09-03T03:03:33.157Z,4.03
2023-09-03T03:06:00.993Z,3.63
2023-09-03T03:08:28.898Z,4.32
2023-09-03T03:11:07.416Z,5.80
2023-09-03T03:13:35.269Z,4.22
2023-09-03T03:16:06.394Z,4.47
2023-09-03T03:18:35.267Z,3.65
2023-09-03T03:21:07.255Z,3.67
2023-09-03T03:23:35.077Z,3.95
2023-09-03T03:26:03.365Z,3.60
2023-09-03T03:28:33.634Z,3.97
2023-09-03T03:31:10.305Z,4.00
2023-09-03T03:33:38.164Z,4.20
2023-09-03T03:36:06.415Z,3.97
2023-09-03T03:38:34.326Z,3.97
2023-09-03T03:41:13.395Z,3.95
2023-09-03T03:43:43.120Z,4.65
2023-09-03T03:46:11.657Z,3.90
2023-09-03T03:48:39.518Z,3.72
2023-09-03T03:51:07.279Z,3.55
2023-09-03T03:53:35.139Z,4.10
2023-09-03T03:56:03.326Z,3.53
2023-09-03T03:58:32.054Z,3.53
2023-09-03T04:01:01.322Z,3.95
2023-09-03T04:03:29.706Z,3.80
2023-09-03T04:05:58.054Z,3.90
2023-09-03T04:08:25.992Z,3.72
2023-09-03T04:11:00.401Z,4.53
2023-09-03T04:13:28.487Z,3.60
2023-09-03T04:15:56.450Z,4.10
2023-09-03T04:18:26.351Z,4.30
2023-09-03T04:20:54.324Z,3.65
2023-09-03T04:23:22.195Z,4.20
2023-09-03T04:25:49.958Z,3.53
2023-09-03T04:28:17.674Z,3.88
2023-09-03T04:30:45.418Z,5.88
2023-09-03T04:33:13.221Z,4.00
2023-09-03T04:35:42.388Z,4.40
2023-09-03T04:38:10.548Z,4.25
2023-09-03T04:40:38.747Z,4.45
2023-09-03T04:43:07.187Z,3.90
2023-09-03T04:45:35.089Z,3.92
2023-09-03T04:48:05.312Z,3.25
2023-09-03T04:50:34.719Z,4.03
2023-09-03T04:53:04.189Z,4.03
2023-09-03T04:55:33.409Z,4.35
2023-09-03T04:58:01.366Z,4.63
2023-09-03T05:00:29.819Z,3.70
2023-09-03T05:02:57.870Z,3.70
2023-09-03T05:05:27.066Z,3.88
2023-09-03T05:07:56.432Z,3.63
2023-09-03T05:10:26.278Z,4.03
2023-09-03T05:12:54.013Z,3.85
2023-09-03T05:15:21.753Z,4.50
2023-09-03T05:17:49.784Z,4.22
2023-09-03T05:20:17.658Z,4.03
2023-09-03T05:22:45.384Z,4.18
2023-09-03T05:25:13.128Z,3.78
2023-09-03T05:27:42.325Z,4.05
2023-09-03T05:30:12.134Z,3.63
2023-09-03T05:32:40.042Z,3.85
2023-09-03T05:35:08.111Z,3.97
2023-09-03T05:37:38.702Z,4.20
2023-09-03T05:40:06.926Z,3.97
2023-09-03T05:42:34.701Z,3.90
2023-09-03T05:45:03.989Z,4.22
2023-09-03T05:47:31.781Z,4.05
2023-09-03T05:49:59.874Z,4.60
2023-09-03T05:52:27.893Z,4.00
2023-09-03T05:54:55.705Z,5.13
2023-09-03T05:57:23.570Z,4.32
2023-09-03T05:59:52.264Z,3.88
2023-09-03T06:02:21.374Z,4.13
2023-09-03T06:04:51.434Z,4.18
2023-09-03T06:07:19.291Z,4.50
2023-09-03T06:09:47.391Z,3.83
2023-09-03T06:12:15.130Z,4.30
2023-09-03T06:14:42.916Z,3.97
2023-09-03T06:17:10.658Z,3.60
2023-09-03T06:19:39.840Z,3.60
2023-09-03T06:22:07.565Z,3.45
2023-09-03T06:24:35.293Z,4.07
2023-09-03T06:27:03.514Z,3.60
2023-09-03T06:29:31.326Z,4.05
2023-09-03T06:31:59.064Z,3.72
2023-09-03T06:34:26.780Z,4.00
2023-09-03T06:36:57.224Z,3.70
2023-09-03T06:39:27.444Z,3.88
2023-09-03T06:41:55.223Z,3.97
2023-09-03T06:44:24.504Z,3.72
2023-09-03T06:46:52.341Z,3.60
2023-09-03T06:49:21.675Z,5.00
2023-09-03T06:51:49.429Z,3.83
2023-09-03T06:54:18.542Z,3.88
2023-09-03T06:56:46.631Z,4.20
2023-09-03T06:59:25.618Z,4.43
2023-09-03T07:02:01.532Z,3.95
2023-09-03T07:04:29.459Z,3.70
2023-09-03T07:06:58.928Z,3.83
2023-09-03T07:09:32.384Z,4.15
2023-09-03T07:12:00.112Z,4.15
2023-09-03T07:14:27.857Z,3.95
2023-09-03T07:16:55.672Z,4.18
2023-09-03T07:19:24.217Z,3.90
2023-09-03T07:21:52.320Z,4.07
2023-09-03T07:24:20.068Z,3.97
2023-09-03T07:26:49.434Z,4.50
2023-09-03T07:29:17.502Z,3.80
2023-09-03T07:31:45.287Z,3.90
2023-09-03T07:34:15.514Z,3.90
2023-09-03T07:36:44.019Z,3.90
2023-09-03T07:39:12.094Z,3.78
2023-09-03T07:41:40.244Z,3.55
2023-09-03T07:44:12.307Z,3.80
2023-09-03T07:46:40.083Z,3.30
2023-09-03T07:49:07.815Z,3.88
2023-09-03T07:51:35.998Z,3.50
2023-09-03T07:54:03.724Z,3.78
2023-09-03T07:56:32.490Z,3.00
2023-09-03T07:59:00.358Z,3.08
2023-09-03T08:01:29.604Z,3.40
2023-09-03T08:03:58.005Z,3.72
2023-09-03T08:06:25.778Z,3.13
2023-09-03T08:08:55.565Z,3.55
2023-09-03T08:11:24.785Z,3.17
2023-09-03T08:13:53.065Z,3.03
2023-09-03T08:16:20.858Z,3.33
2023-09-03T08:18:50.011Z,2.70
2023-09-03T08:21:17.820Z,3.30
2023-09-03T08:23:46.010Z,4.03
2023-09-03T08:26:13.835Z,3.20
2023-09-03T08:28:41.545Z,3.42
2023-09-03T08:31:09.745Z,2.85
2023-09-03T08:33:38.970Z,3.15
2023-09-03T08:36:08.458Z,3.13
2023-09-03T08:38:36.231Z,2.72
2023-09-03T08:41:04.116Z,2.58
2023-09-03T08:43:32.252Z,3.50
2023-09-03T08:46:03.250Z,2.30
2023-09-03T08:48:31.169Z,3.35
2023-09-03T08:50:59.795Z,2.80
2023-09-03T08:53:29.163Z,2.90
2023-09-03T08:55:56.931Z,2.80
2023-09-03T08:58:24.803Z,2.85
2023-09-03T09:00:54.302Z,2.80
2023-09-03T09:03:24.688Z,2.72
2023-09-03T09:05:53.332Z,3.47
2023-09-03T09:08:21.358Z,2.58
2023-09-03T09:10:52.772Z,2.75
2023-09-03T09:13:22.684Z,2.58
2023-09-03T09:15:50.842Z,2.70
2023-09-03T09:18:18.614Z,2.80
2023-09-03T09:20:46.701Z,2.58
2023-09-03T09:23:20.765Z,2.80
2023-09-03T09:25:50.220Z,2.55
2023-09-03T09:28:18.027Z,2.45
2023-09-03T09:30:56.077Z,2.38
2023-09-03T09:33:24.320Z,2.10
2023-09-03T09:35:52.554Z,2.40
2023-09-03T09:38:20.643Z,2.17
2023-09-03T09:40:48.458Z,2.00
2023-09-03T09:43:17.740Z,2.85
2023-09-03T09:45:49.700Z,2.42
2023-09-03T09:48:18.097Z,2.20
2023-09-03T09:50:52.198Z,1.98
2023-09-03T09:59:03.398Z,2.22
2023-09-03T10:01:54.227Z,2.08
2023-09-03T10:04:42.550Z,1.95
2023-09-03T10:07:10.639Z,2.17
2023-09-03T10:09:38.567Z,1.73
2023-09-03T10:12:12.291Z,1.60
2023-09-03T10:14:41.794Z,1.48
2023-09-03T10:17:12.751Z,1.60
2023-09-03T10:19:53.204Z,1.88
2023-09-03T10:22:24.865Z,2.53
2023-09-03T10:24:56.169Z,2.00
2023-09-03T10:27:27.002Z,2.40
2023-09-03T10:29:57.766Z,1.92
2023-09-03T10:32:25.712Z,3.15
2023-09-03T10:34:53.734Z,2.20
2023-09-03T10:37:24.279Z,2.53
2023-09-03T10:39:52.261Z,2.25
2023-09-03T10:42:33.744Z,2.20
2023-09-03T10:45:03.919Z,1.90
2023-09-03T10:47:34.334Z,2.25
2023-09-03T10:50:04.638Z,2.58
2023-09-03T10:52:43.303Z,3.85
2023-09-03T10:55:12.097Z,2.10
2023-09-03T10:57:40.103Z,2.65
2023-09-03T11:00:09.919Z,2.03
2023-09-03T11:02:38.296Z,2.35
2023-09-03T11:05:16.319Z,4.82
2023-09-03T11:07:44.875Z,2.22
2023-09-03T11:10:42.803Z,2.22
2023-09-03T11:13:19.482Z,2.10
2023-09-03T11:15:57.257Z,2.03
2023-09-03T11:18:27.317Z,1.90
2023-09-03T11:20:55.538Z,3.10
2023-09-03T11:23:23.594Z,3.13
2023-09-03T11:25:51.899Z,2.00
2023-09-03T11:28:19.724Z,2.40
2023-09-03T11:30:48.051Z,1.85
2023-09-03T11:33:26.437Z,2.25
2023-09-03T11:35:56.013Z,2.22
2023-09-03T11:38:27.151Z,2.42
2023-09-03T11:40:55.640Z,2.08
2023-09-03T11:43:23.721Z,2.20
2023-09-03T11:45:51.520Z,2.20
2023-09-03T11:48:26.720Z,1.85
2023-09-03T11:50:54.821Z,1.60
2023-09-03T11:53:23.193Z,1.60
2023-09-03T11:56:09.244Z,2.47
2023-09-03T11:58:38.729Z,1.55
2023-09-03T12:01:07.015Z,2.08
2023-09-03T12:03:39.993Z,2.00
2023-09-03T12:06:08.003Z,1.83
2023-09-03T12:08:36.010Z,2.05
2023-09-03T12:11:03.866Z,1.95
2023-09-03T12:13:32.254Z,2.20
2023-09-03T12:16:04.304Z,2.03
2023-09-03T12:18:32.106Z,1.90
2023-09-03T12:21:01.614Z,1.77
2023-09-03T12:23:33.128Z,2.10
2023-09-03T12:26:01.207Z,2.17
2023-09-03T12:28:36.329Z,2.25
2023-09-03T12:31:04.627Z,2.10
2023-09-03T12:33:51.690Z,2.47
2023-09-03T12:36:21.641Z,2.40
2023-09-03T12:38:57.355Z,2.35
2023-09-03T12:41:26.103Z,2.70
2023-09-03T12:43:54.328Z,2.33
2023-09-03T12:46:22.191Z,2.50
2023-09-03T12:48:50.335Z,2.90
2023-09-03T12:51:18.659Z,2.60
2023-09-03T12:53:48.890Z,2.92
2023-09-03T12:56:16.910Z,2.63
2023-09-03T12:58:44.676Z,2.25
2023-09-03T13:01:12.955Z,2.60
2023-09-03T13:03:40.818Z,2.58
2023-09-03T13:06:08.637Z,2.67
2023-09-03T13:08:38.170Z,3.08
2023-09-03T13:11:07.628Z,2.50
2023-09-03T13:13:37.310Z,2.45
2023-09-03T13:16:05.330Z,2.88
2023-09-03T13:18:33.965Z,2.72
2023-09-03T13:21:03.364Z,3.30
2023-09-03T13:23:31.044Z,2.50
2023-09-03T13:25:58.786Z,2.80
2023-09-03T13:28:28.496Z,2.35
2023-09-03T13:31:05.541Z,2.45
2023-09-03T13:33:35.869Z,2.55
2023-09-03T13:36:05.075Z,2.72
2023-09-03T13:38:33.270Z,2.75
2023-09-03T13:41:01.026Z,2.65
2023-09-03T13:43:30.104Z,2.50
2023-09-03T13:45:58.298Z,2.13
2023-09-03T13:48:26.730Z,2.15
2023-09-03T13:50:55.800Z,2.45
2023-09-03T13:53:24.159Z,2.80
2023-09-03T13:55:52.255Z,2.70
2023-09-03T13:58:20.462Z,2.60
2023-09-03T14:00:49.848Z,3.13
2023-09-03T14:03:17.746Z,2.67
2023-09-03T14:05:46.312Z,2.97
2023-09-03T14:08:14.065Z,2.40
2023-09-03T14:10:41.869Z,2.90
2023-09-03T14:13:09.596Z,2.83
2023-09-03T14:15:37.477Z,2.65
2023-09-03T14:18:06.871Z,3.55
2023-09-03T14:20:38.107Z,2.58
2023-09-03T14:23:06.164Z,2.75
2023-09-03T14:25:35.765Z,2.58
2023-09-03T14:28:03.595Z,2.80
2023-09-03T14:30:31.332Z,2.47
2023-09-03T14:32:59.184Z,3.05
2023-09-03T14:35:28.297Z,2.30
2023-09-03T14:37:55.985Z,2.35
2023-09-03T14:40:23.906Z,2.22
2023-09-03T14:42:51.682Z,2.33
2023-09-03T14:45:21.560Z,2.60
2023-09-03T14:47:51.096Z,2.40
2023-09-03T14:50:19.609Z,2.35
2023-09-03T14:52:48.767Z,2.15
2023-09-03T14:55:16.550Z,2.53
2023-09-03T14:57:44.321Z,2.50
2023-09-03T15:00:12.505Z,2.38
2023-09-03T15:02:40.262Z,2.70
2023-09-03T15:05:08.571Z,2.40
2023-09-03T15:07:36.751Z,2.60
2023-09-03T15:10:06.173Z,2.50
2023-09-03T15:12:33.926Z,2.67
2023-09-03T15:15:01.710Z,2.72
2023-09-03T15:17:29.531Z,2.55
2023-09-03T15:19:57.329Z,2.70
2023-09-03T15:22:25.090Z,2.25
2023-09-03T15:24:52.839Z,3.05
2023-09-03T15:27:21.988Z,3.50
2023-09-03T15:29:49.714Z,2.42
2023-09-03T15:32:17.414Z,2.47
2023-09-03T15:34:45.103Z,3.25
2023-09-03T15:37:12.859Z,3.40
2023-09-03T15:39:40.732Z,2.95
2023-09-03T15:42:08.802Z,3.40
2023-09-03T15:44:38.165Z,2.80
2023-09-03T15:47:06.029Z,3.15
2023-09-03T15:49:35.046Z,3.05
2023-09-03T15:52:02.814Z,2.78
2023-09-03T15:54:31.172Z,3.00
2023-09-03T15:56:58.880Z,2.70
2023-09-03T15:59:27.247Z,2.90
2023-09-03T16:01:56.394Z,3.10
2023-09-03T16:04:24.125Z,2.65
2023-09-03T16:06:51.863Z,3.50
2023-09-03T16:09:20.199Z,2.92
2023-09-03T16:11:48.247Z,3.20
2023-09-03T16:14:16.007Z,2.88
2023-09-03T16:16:43.830Z,2.75
2023-09-03T16:19:13.017Z,2.47
2023-09-03T16:21:41.436Z,2.33
2023-09-03T16:24:09.614Z,3.25
2023-09-03T16:26:37.395Z,2.85
2023-09-03T16:29:05.169Z,2.72
2023-09-03T16:31:33.028Z,2.58
2023-09-03T16:34:04.030Z,2.90
2023-09-03T16:36:36.648Z,2.50
2023-09-03T16:39:09.093Z,3.15
2023-09-03T16:41:37.414Z,3.03
2023-09-03T16:44:05.576Z,2.60
2023-09-03T16:46:33.406Z,3.03
2023-09-03T16:49:01.280Z,3.22
2023-09-03T16:51:29.051Z,2.95
2023-09-03T16:53:58.161Z,3.05
2023-09-03T16:56:26.028Z,3.25
2023-09-03T16:58:53.804Z,3.30
2023-09-03T17:01:21.571Z,3.10
2023-09-03T17:03:51.921Z,3.55
2023-09-03T17:06:20.770Z,3.40
2023-09-03T17:08:48.664Z,3.42
2023-09-03T17:11:17.895Z,4.15
2023-09-03T17:13:45.712Z,3.47
2023-09-03T17:16:15.213Z,4.78
2023-09-03T17:18:43.326Z,3.85
2023-09-03T17:21:12.567Z,4.05
2023-09-03T17:23:42.413Z,3.95
2023-09-03T17:26:23.957Z,5.00
2023-09-03T17:28:59.489Z,3.60
2023-09-03T17:31:27.863Z,5.20
2023-09-03T17:33:55.762Z,5.50
2023-09-03T17:36:23.512Z,4.18
2023-09-03T17:38:51.363Z,3.60
2023-09-03T17:41:19.145Z,4.32
2023-09-03T17:43:46.953Z,4.05
2023-09-03T17:46:16.114Z,3.83
2023-09-03T17:48:44.001Z,4.50
2023-09-03T17:51:12.044Z,4.03
2023-09-03T17:53:42.089Z,4.03
2023-09-03T17:56:09.852Z,3.95
2023-09-03T17:58:37.647Z,3.95
2023-09-03T18:01:05.422Z,4.55
2023-09-03T18:03:34.902Z,4.00
2023-09-03T18:06:10.774Z,4.43
2023-09-03T18:08:38.551Z,3.95
2023-09-03T18:11:12.065Z,4.88
2023-09-03T18:13:39.820Z,4.13
2023-09-03T18:16:07.614Z,5.05
2023-09-03T18:18:36.806Z,4.32
2023-09-03T18:21:04.622Z,4.88
2023-09-03T18:23:32.338Z,4.97
2023-09-03T18:26:00.156Z,4.78
2023-09-03T18:28:29.023Z,4.70
2023-09-03T18:30:58.729Z,4.80
2023-09-03T18:33:27.482Z,5.20
2023-09-03T18:35:57.210Z,4.88
2023-09-03T18:38:26.709Z,4.80
2023-09-03T18:40:54.744Z,5.25
2023-09-03T18:43:22.495Z,4.30
2023-09-03T18:45:50.465Z,4.47
2023-09-03T18:48:18.284Z,4.82
2023-09-03T18:50:46.468Z,4.40
2023-09-03T18:53:22.729Z,4.60
2023-09-03T18:55:53.219Z,4.30
2023-09-03T18:58:23.069Z,4.55
2023-09-03T19:00:51.208Z,4.70
2023-09-03T19:03:19.919Z,5.65
2023-09-03T19:05:55.342Z,4.78
2023-09-03T19:08:26.288Z,5.00
2023-09-03T19:10:59.452Z,4.90
2023-09-03T19:13:31.324Z,5.07
2023-09-03T19:16:02.922Z,4.40
2023-09-03T19:18:35.323Z,4.45
2023-09-03T19:21:03.192Z,4.75
2023-09-03T19:23:34.705Z,4.13
2023-09-03T19:26:04.398Z,4.35
2023-09-03T19:28:42.247Z,4.90
2023-09-03T19:31:10.118Z,4.85
2023-09-03T19:33:38.911Z,4.72
2023-09-03T19:36:06.929Z,4.35
2023-09-03T19:38:58.435Z,5.05
2023-09-03T19:41:27.861Z,4.40
2023-09-03T19:43:58.972Z,4.82
2023-09-03T19:46:31.272Z,4.30
2023-09-03T19:49:02.538Z,4.97
2023-09-03T19:51:39.509Z,4.35
2023-09-03T19:54:13.477Z,4.38
2023-09-03T19:56:53.753Z,4.68
2023-09-03T19:59:26.041Z,4.60
2023-09-03T20:01:57.098Z,4.30
2023-09-03T20:04:38.778Z,3.80
2023-09-03T20:07:06.753Z,4.88
2023-09-03T20:09:39.599Z,4.13
2023-09-03T20:12:22.723Z,3.90
2023-09-03T20:14:59.861Z,3.88
2023-09-03T20:17:38.605Z,3.60
2023-09-03T20:20:52.168Z,4.10
2023-09-03T20:23:21.009Z,4.20
2023-09-03T20:26:09.312Z,4.18
2023-09-03T20:31:36.643Z,5.88
2023-09-03T20:34:18.526Z,3.75
2023-09-03T20:36:51.963Z,4.55
2023-09-03T20:39:19.821Z,3.83
2023-09-03T20:41:59.046Z,4.25
2023-09-03T20:44:32.163Z,4.00
2023-09-03T20:47:03.246Z,3.80
2023-09-03T20:49:31.095Z,4.18
2023-09-03T20:52:01.331Z,4.07
2023-09-03T20:54:29.155Z,3.95
2023-09-03T20:56:59.364Z,4.13
2023-09-03T20:59:34.605Z,4.03
2023-09-03T21:02:05.718Z,3.97
2023-09-03T21:04:34.044Z,3.88
2023-09-03T21:07:03.769Z,4.07
2023-09-03T21:09:31.864Z,4.10
2023-09-03T21:12:02.676Z,4.30
2023-09-03T21:14:30.689Z,3.97
2023-09-03T21:16:59.995Z,4.28
2023-09-03T21:19:28.346Z,4.85
2023-09-03T21:21:56.233Z,4.03
2023-09-03T21:24:24.138Z,4.35
2023-09-03T21:26:51.922Z,5.43
2023-09-03T21:29:20.708Z,3.75
2023-09-03T21:31:48.544Z,4.93
2023-09-03T21:34:18.697Z,5.00
2023-09-03T21:36:46.552Z,4.45
2023-09-03T21:39:17.466Z,4.85
2023-09-03T21:41:47.633Z,4.85
2023-09-03T21:44:16.394Z,5.35
2023-09-03T21:46:46.034Z,5.40
2023-09-03T21:49:14.053Z,4.95
2023-09-03T21:51:44.676Z,5.32
2023-09-03T21:54:16.071Z,4.93
2023-09-03T21:56:43.950Z,5.82
2023-09-03T21:59:11.805Z,4.68
2023-09-03T22:01:44.997Z,4.70
2023-09-03T22:04:19.118Z,4.97
2023-09-03T22:06:50.986Z,5.32
2023-09-03T22:09:22.048Z,5.10
2023-09-03T22:11:49.940Z,5.40
2023-09-03T22:14:19.647Z,5.05
2023-09-03T22:16:47.463Z,5.35
2023-09-03T22:19:26.045Z,4.70
2023-09-03T22:21:57.159Z,5.80
2023-09-03T22:24:25.046Z,5.93
2023-09-03T22:26:53.071Z,5.05
2023-09-03T22:29:20.780Z,5.35
2023-09-03T22:31:54.426Z,4.97
2023-09-03T22:34:22.236Z,5.07
2023-09-03T22:36:50.028Z,4.38
2023-09-03T22:39:19.204Z,4.80
2023-09-03T22:41:47.094Z,4.90
2023-09-03T22:44:14.940Z,4.40
2023-09-03T22:46:42.854Z,4.78
2023-09-03T22:49:10.754Z,4.50
2023-09-03T22:51:38.495Z,4.57
2023-09-03T22:54:06.485Z,4.30
2023-09-03T22:56:36.295Z,4.45
2023-09-03T22:59:04.117Z,3.97
2023-09-03T23:01:33.220Z,4.55
2023-09-03T23:04:01.901Z,4.13
2023-09-03T23:06:29.899Z,4.40
2023-09-03T23:08:57.689Z,4.38
2023-09-03T23:11:25.874Z,4.40
2023-09-03T23:14:05.191Z,4.38
2023-09-03T23:16:33.178Z,4.03
2023-09-03T23:19:01.088Z,4.18
2023-09-03T23:21:30.348Z,4.65
2023-09-03T23:24:01.222Z,3.75
2023-09-03T23:26:29.141Z,4.75
2023-09-03T23:28:56.959Z,4.53
2023-09-03T23:31:26.317Z,4.65
2023-09-03T23:33:59.609Z,4.28
2023-09-03T23:36:27.641Z,4.65
2023-09-03T23:38:55.474Z,4.25
2023-09-03T23:41:23.216Z,4.22
2023-09-03T23:43:51.036Z,4.53
2023-09-03T23:46:18.920Z,4.25
2023-09-03T23:48:48.108Z,4.53
2023-09-03T23:51:15.966Z,4.03
2023-09-03T23:53:45.452Z,4.70
2023-09-03T23:56:13.351Z,4.13
2023-09-03T23:58:41.125Z,3.72
